createdAt,value
2019-05-23T00:01:23.074Z,9.10
2019-05-23T00:03:58.559Z,9.00
2019-05-23T00:06:26.806Z,9.00
2019-05-23T00:08:55.277Z,8.90
2019-05-23T00:11:32.398Z,8.90
2019-05-23T00:14:04.596Z,8.90
2019-05-23T00:16:32.938Z,8.80
2019-05-23T00:19:00.965Z,8.80
2019-05-23T00:21:27.824Z,8.90
2019-05-23T00:23:54.876Z,8.90
2019-05-23T00:26:22.279Z,8.90
2019-05-23T00:28:49.551Z,8.90
2019-05-23T00:31:27.619Z,8.90
2019-05-23T00:33:55.008Z,8.90
2019-05-23T00:36:23.968Z,8.80
2019-05-23T00:38:52.035Z,8.90
2019-05-23T00:41:20.844Z,8.80
2019-05-23T00:43:48.259Z,8.80
2019-05-23T00:46:15.889Z,8.80
2019-05-23T00:48:43.905Z,8.80
2019-05-23T00:51:11.110Z,8.70
2019-05-23T00:53:37.923Z,8.60
2019-05-23T00:56:06.364Z,8.60
2019-05-23T00:58:34.609Z,8.50
2019-05-23T01:01:02.145Z,8.50
2019-05-23T01:03:30.361Z,8.50
2019-05-23T01:05:58.812Z,8.40
2019-05-23T01:08:26.251Z,8.30
2019-05-23T01:10:55.504Z,8.30
2019-05-23T01:13:23.719Z,8.40
2019-05-23T01:15:52.023Z,8.40
2019-05-23T01:18:20.427Z,8.40
2019-05-23T01:21:05.900Z,8.40
2019-05-23T01:23:37.027Z,8.50
2019-05-23T01:26:04.247Z,8.40
2019-05-23T01:28:31.532Z,8.40
2019-05-23T01:31:01.527Z,8.40
2019-05-23T01:33:28.437Z,8.30
2019-05-23T01:35:56.146Z,8.30
2019-05-23T01:38:23.843Z,8.30
2019-05-23T01:40:51.188Z,8.30
2019-05-23T01:43:19.329Z,8.20
2019-05-23T01:45:46.212Z,8.20
2019-05-23T01:48:14.442Z,8.20
2019-05-23T01:50:42.680Z,8.30
2019-05-23T01:53:10.928Z,8.20
2019-05-23T01:55:38.602Z,8.20
2019-05-23T01:58:05.429Z,8.30
2019-05-23T02:00:32.552Z,8.20
2019-05-23T02:03:00.372Z,8.20
2019-05-23T02:05:27.851Z,8.10
2019-05-23T02:07:54.604Z,8.10
2019-05-23T02:10:22.404Z,8.10
2019-05-23T02:12:49.592Z,8.10
2019-05-23T02:15:18.160Z,8.10
2019-05-23T02:17:45.674Z,8.00
2019-05-23T02:20:15.494Z,7.90
2019-05-23T02:22:43.824Z,7.90
2019-05-23T02:25:13.969Z,7.90
2019-05-23T02:27:42.514Z,7.80
2019-05-23T02:30:32.166Z,7.90
2019-05-23T02:32:42.967Z,8.00
2019-05-23T02:35:11.213Z,7.90
2019-05-23T02:38:04.761Z,7.90
2019-05-23T02:40:43.328Z,7.90
2019-05-23T02:43:12.052Z,7.90
2019-05-23T02:45:44.629Z,7.90
2019-05-23T02:48:17.101Z,7.90
2019-05-23T02:50:50.047Z,7.90
2019-05-23T02:53:18.819Z,7.90
2019-05-23T02:55:48.956Z,7.90
2019-05-23T02:58:23.512Z,7.90
2019-05-23T03:00:58.624Z,7.80
2019-05-23T03:03:29.468Z,7.80
2019-05-23T03:05:58.554Z,7.80
2019-05-23T03:08:26.369Z,7.80
2019-05-23T03:11:21.634Z,7.80
2019-05-23T03:13:51.360Z,7.80
2019-05-23T03:16:22.227Z,7.80
2019-05-23T03:18:55.187Z,7.80
2019-05-23T03:21:24.324Z,7.80
2019-05-23T03:23:52.148Z,7.90
2019-05-23T03:26:51.237Z,7.90
2019-05-23T03:29:19.067Z,7.90
2019-05-23T03:31:52.128Z,7.90
2019-05-23T03:34:20.789Z,7.90
2019-05-23T03:36:48.196Z,7.90
2019-05-23T03:39:15.679Z,7.90
2019-05-23T03:41:43.450Z,7.90
2019-05-23T03:44:10.942Z,7.90
2019-05-23T03:46:43.640Z,7.90
2019-05-23T03:49:11.072Z,8.00
2019-05-23T03:51:39.789Z,8.10
2019-05-23T03:54:08.119Z,8.20
2019-05-23T03:56:34.936Z,8.30
2019-05-23T03:59:03.784Z,8.40
2019-05-23T04:01:47.019Z,8.40
2019-05-23T04:04:02.965Z,8.50
2019-05-23T04:06:31.051Z,8.50
2019-05-23T04:08:57.926Z,8.60
2019-05-23T04:11:24.880Z,8.60
2019-05-23T04:13:51.940Z,8.60
2019-05-23T04:16:19.224Z,8.70
2019-05-23T04:18:46.670Z,8.90
2019-05-23T04:21:14.257Z,9.00
2019-05-23T04:23:41.786Z,9.20
2019-05-23T04:26:08.915Z,9.40
2019-05-23T04:28:36.095Z,9.60
2019-05-23T04:31:03.030Z,9.70
2019-05-23T04:33:30.165Z,9.90
2019-05-23T04:35:57.364Z,9.90
2019-05-23T04:38:24.042Z,9.90
2019-05-23T04:40:50.753Z,10.10
2019-05-23T04:43:18.200Z,10.20
2019-05-23T04:45:47.009Z,10.00
2019-05-23T04:48:14.232Z,10.10
2019-05-23T04:50:40.918Z,10.50
2019-05-23T04:53:08.342Z,11.20
2019-05-23T04:55:37.357Z,11.60
2019-05-23T04:58:05.119Z,11.80
2019-05-23T05:00:32.656Z,12.30
2019-05-23T05:02:59.904Z,12.90
2019-05-23T05:05:26.892Z,13.60
2019-05-23T05:07:54.060Z,14.20
2019-05-23T05:10:22.592Z,15.10
2019-05-23T05:12:49.976Z,15.70
2019-05-23T05:15:17.275Z,16.20
2019-05-23T05:17:45.392Z,16.80
2019-05-23T05:20:13.156Z,17.10
2019-05-23T05:22:40.409Z,17.70
2019-05-23T05:25:09.339Z,18.00
2019-05-23T05:27:36.848Z,18.50
2019-05-23T05:30:04.537Z,19.20
2019-05-23T05:32:44.028Z,19.70
2019-05-23T05:35:01.706Z,20.40
2019-05-23T05:37:29.553Z,20.80
2019-05-23T05:39:57.840Z,21.40
2019-05-23T05:42:24.644Z,22.20
2019-05-23T05:44:51.505Z,23.10
2019-05-23T05:47:18.810Z,23.60
2019-05-23T05:49:46.735Z,23.70
2019-05-23T05:52:13.728Z,24.10
2019-05-23T05:54:40.936Z,23.80
2019-05-23T05:57:07.876Z,23.90
2019-05-23T05:59:35.040Z,23.70
2019-05-23T06:02:02.748Z,24.00
2019-05-23T06:04:29.743Z,23.70
2019-05-23T06:07:15.227Z,24.10
2019-05-23T06:09:43.131Z,25.00
2019-05-23T06:12:10.210Z,25.30
2019-05-23T06:14:37.488Z,25.00
2019-05-23T06:17:07.046Z,25.10
2019-05-23T06:19:34.764Z,25.80
2019-05-23T06:22:01.990Z,24.80
2019-05-23T06:24:44.416Z,25.50
2019-05-23T06:26:57.646Z,24.80
2019-05-23T06:29:25.343Z,25.70
2019-05-23T06:31:53.492Z,26.20
2019-05-23T06:34:20.939Z,26.20
2019-05-23T06:36:47.978Z,26.40
2019-05-23T06:39:16.321Z,26.60
2019-05-23T06:41:44.008Z,27.10
2019-05-23T06:44:11.859Z,28.40
2019-05-23T06:46:38.827Z,29.40
2019-05-23T06:49:05.916Z,30.40
2019-05-23T06:51:32.915Z,29.60
2019-05-23T06:54:00.047Z,29.10
2019-05-23T06:56:27.533Z,30.20
2019-05-23T06:58:54.613Z,29.70
2019-05-23T07:01:21.492Z,31.10
2019-05-23T07:03:48.524Z,31.00
2019-05-23T07:06:19.108Z,32.50
2019-05-23T07:08:45.816Z,32.60
2019-05-23T07:11:13.203Z,32.10
2019-05-23T07:13:40.620Z,32.60
2019-05-23T07:16:07.664Z,32.90
2019-05-23T07:18:34.946Z,33.30
2019-05-23T07:21:02.132Z,35.10
2019-05-23T07:23:29.788Z,34.00
2019-05-23T07:25:56.749Z,34.30
2019-05-23T07:28:23.991Z,34.50
2019-05-23T07:30:51.058Z,34.70
2019-05-23T07:33:18.396Z,34.80
2019-05-23T07:35:45.225Z,36.20
2019-05-23T07:38:12.338Z,35.90
2019-05-23T07:40:39.359Z,36.60
2019-05-23T07:43:06.766Z,37.10
2019-05-23T07:45:40.209Z,37.30
2019-05-23T07:48:07.025Z,37.60
2019-05-23T07:50:33.833Z,38.00
2019-05-23T07:53:01.741Z,38.00
2019-05-23T07:55:33.978Z,37.60
2019-05-23T07:58:00.881Z,38.00
2019-05-23T08:00:31.821Z,37.90
2019-05-23T08:03:00.805Z,37.60
2019-05-23T08:05:28.223Z,38.00
2019-05-23T08:07:56.523Z,38.40
2019-05-23T08:10:32.995Z,37.90
2019-05-23T08:12:52.595Z,37.50
2019-05-23T08:15:19.922Z,38.80
2019-05-23T08:17:47.545Z,37.60
2019-05-23T08:20:14.763Z,37.90
2019-05-23T08:22:41.844Z,37.80
2019-05-23T08:25:08.783Z,36.80
2019-05-23T08:27:36.030Z,37.10
2019-05-23T08:30:05.720Z,37.10
2019-05-23T08:32:32.843Z,37.40
2019-05-23T08:35:00.169Z,38.30
2019-05-23T08:37:28.020Z,38.30
2019-05-23T08:39:54.943Z,38.60
2019-05-23T08:42:21.974Z,37.90
2019-05-23T08:44:48.829Z,38.90
2019-05-23T08:47:16.015Z,38.20
2019-05-23T08:49:43.269Z,38.30
2019-05-23T08:52:10.257Z,38.40
2019-05-23T08:54:37.262Z,38.10
2019-05-23T08:57:06.152Z,38.60
2019-05-23T08:59:33.277Z,37.80
2019-05-23T09:02:01.571Z,37.80
2019-05-23T09:04:30.202Z,37.10
2019-05-23T09:06:57.939Z,37.10
2019-05-23T09:09:29.951Z,37.20
2019-05-23T09:11:56.233Z,37.10
2019-05-23T09:14:23.186Z,36.80
2019-05-23T09:16:50.375Z,36.20
2019-05-23T09:19:17.197Z,36.20
2019-05-23T09:21:44.018Z,36.20
2019-05-23T09:24:12.390Z,36.40
2019-05-23T09:26:39.093Z,35.60
2019-05-23T09:29:06.968Z,34.90
2019-05-23T09:31:34.177Z,34.60
2019-05-23T09:34:01.024Z,33.20
2019-05-23T09:36:28.014Z,31.50
2019-05-23T09:38:54.717Z,30.30
2019-05-23T09:41:21.513Z,29.10
2019-05-23T09:43:49.158Z,28.20
2019-05-23T09:46:16.292Z,27.60
2019-05-23T09:48:43.116Z,27.20
2019-05-23T09:51:09.875Z,26.50
2019-05-23T09:53:36.738Z,26.10
2019-05-23T09:56:04.268Z,25.70
2019-05-23T09:58:30.932Z,25.60
2019-05-23T10:00:57.659Z,25.40
2019-05-23T10:03:24.548Z,25.20
2019-05-23T10:05:52.931Z,25.00
2019-05-23T10:08:20.263Z,24.70
2019-05-23T10:10:47.140Z,24.60
2019-05-23T10:13:14.859Z,24.40
2019-05-23T10:15:56.843Z,24.50
2019-05-23T10:18:23.665Z,24.40
2019-05-23T10:20:50.542Z,24.00
2019-05-23T10:23:17.315Z,23.90
2019-05-23T10:25:44.642Z,24.00
2019-05-23T10:28:11.679Z,24.00
2019-05-23T10:30:38.885Z,23.80
2019-05-23T10:33:11.588Z,23.80
2019-05-23T10:35:35.492Z,23.90
2019-05-23T10:38:02.994Z,24.00
2019-05-23T10:40:30.422Z,24.10
2019-05-23T10:42:57.730Z,24.00
2019-05-23T10:45:24.676Z,23.90
2019-05-23T10:47:51.898Z,23.70
2019-05-23T10:50:18.821Z,23.80
2019-05-23T10:52:45.928Z,23.90
2019-05-23T10:55:14.272Z,24.00
2019-05-23T10:57:41.334Z,24.10
2019-05-23T11:00:10.079Z,24.10
2019-05-23T11:02:37.920Z,24.10
2019-05-23T11:05:12.834Z,24.00
2019-05-23T11:07:34.847Z,24.10
2019-05-23T11:10:03.032Z,24.30
2019-05-23T11:12:30.321Z,24.50
2019-05-23T11:14:57.321Z,24.50
2019-05-23T11:17:25.144Z,24.60
2019-05-23T11:19:51.999Z,24.40
2019-05-23T11:22:19.549Z,24.30
2019-05-23T11:24:46.444Z,24.30
2019-05-23T11:27:13.356Z,23.80
2019-05-23T11:29:40.526Z,23.60
2019-05-23T11:32:08.868Z,23.60
2019-05-23T11:34:36.505Z,23.70
2019-05-23T11:37:03.717Z,23.80
2019-05-23T11:39:30.820Z,23.80
2019-05-23T11:41:57.645Z,23.30
2019-05-23T11:44:24.584Z,22.80
2019-05-23T11:46:52.052Z,22.90
2019-05-23T11:49:19.068Z,23.20
2019-05-23T11:51:46.094Z,23.60
2019-05-23T11:54:13.078Z,24.00
2019-05-23T11:56:41.144Z,23.80
2019-05-23T11:59:08.394Z,24.10
2019-05-23T12:01:50.897Z,24.60
2019-05-23T12:04:19.498Z,25.00
2019-05-23T12:06:56.425Z,25.20
2019-05-23T12:09:23.686Z,25.40
2019-05-23T12:11:50.974Z,25.50
2019-05-23T12:14:17.788Z,25.50
2019-05-23T12:16:45.150Z,25.30
2019-05-23T12:19:12.168Z,25.10
2019-05-23T12:21:39.278Z,24.50
2019-05-23T12:24:06.261Z,24.60
2019-05-23T12:26:33.085Z,24.80
2019-05-23T12:28:59.881Z,24.80
2019-05-23T12:31:27.254Z,24.80
2019-05-23T12:33:54.324Z,25.00
2019-05-23T12:36:21.332Z,25.30
2019-05-23T12:38:48.302Z,25.50
2019-05-23T12:41:15.492Z,25.90
2019-05-23T12:43:42.202Z,26.30
2019-05-23T12:46:09.353Z,26.40
2019-05-23T12:48:43.934Z,26.40
2019-05-23T12:51:12.254Z,26.50
2019-05-23T12:53:39.492Z,26.30
2019-05-23T12:56:06.860Z,25.70
2019-05-23T12:58:34.452Z,25.90
2019-05-23T13:01:02.355Z,25.90
2019-05-23T13:03:29.502Z,26.10
2019-05-23T13:05:56.536Z,26.20
2019-05-23T13:08:23.755Z,26.20
2019-05-23T13:10:50.631Z,26.30
2019-05-23T13:13:17.489Z,26.10
2019-05-23T13:15:44.481Z,25.40
2019-05-23T13:18:11.408Z,25.50
2019-05-23T13:20:38.712Z,25.70
2019-05-23T13:23:06.030Z,26.00
2019-05-23T13:25:33.170Z,26.00
2019-05-23T13:28:00.158Z,25.80
2019-05-23T13:30:27.881Z,25.40
2019-05-23T13:32:54.839Z,24.70
2019-05-23T13:35:23.355Z,24.60
2019-05-23T13:37:54.033Z,24.60
2019-05-23T13:40:19.145Z,24.10
2019-05-23T13:42:46.900Z,23.40
2019-05-23T13:45:14.225Z,23.30
2019-05-23T13:47:40.935Z,23.60
2019-05-23T13:50:08.356Z,23.70
2019-05-23T13:52:36.329Z,23.80
2019-05-23T13:55:03.856Z,23.60
2019-05-23T13:57:30.582Z,23.40
2019-05-23T13:59:57.508Z,23.20
2019-05-23T14:02:24.492Z,23.00
2019-05-23T14:04:51.508Z,23.40
2019-05-23T14:07:19.012Z,23.80
2019-05-23T14:09:45.995Z,23.60
2019-05-23T14:12:21.567Z,23.90
2019-05-23T14:14:41.539Z,23.80
2019-05-23T14:17:32.910Z,23.70
2019-05-23T14:19:59.797Z,23.60
2019-05-23T14:22:27.590Z,23.40
2019-05-23T14:24:54.382Z,23.40
2019-05-23T14:27:41.097Z,23.30
2019-05-23T14:30:16.540Z,22.90
2019-05-23T14:32:49.476Z,22.40
2019-05-23T14:35:19.400Z,22.20
2019-05-23T14:37:48.363Z,21.90
2019-05-23T14:40:15.304Z,21.90
2019-05-23T14:43:00.860Z,22.00
2019-05-23T14:45:44.962Z,22.10
2019-05-23T14:48:31.324Z,22.20
2019-05-23T14:51:16.676Z,22.30
2019-05-23T14:53:47.790Z,22.70
2019-05-23T14:56:16.397Z,22.80
2019-05-23T14:58:43.445Z,23.40
2019-05-23T15:01:11.185Z,23.70
2019-05-23T15:03:38.513Z,23.80
2019-05-23T15:06:05.615Z,23.70
2019-05-23T15:08:49.647Z,23.70
2019-05-23T15:11:02.251Z,23.60
2019-05-23T15:13:29.083Z,23.60
2019-05-23T15:15:56.248Z,23.60
2019-05-23T15:18:22.999Z,23.40
2019-05-23T15:20:49.693Z,23.20
2019-05-23T15:23:16.534Z,23.20
2019-05-23T15:25:43.428Z,23.10
2019-05-23T15:28:10.343Z,23.20
2019-05-23T15:30:37.160Z,23.40
2019-05-23T15:33:04.316Z,23.60
2019-05-23T15:35:33.348Z,23.50
2019-05-23T15:38:00.715Z,23.50
2019-05-23T15:40:28.408Z,23.20
2019-05-23T15:42:55.308Z,23.30
2019-05-23T15:45:22.108Z,23.40
2019-05-23T15:47:49.061Z,23.40
2019-05-23T15:50:18.023Z,23.40
2019-05-23T15:52:51.280Z,23.50
2019-05-23T15:55:29.892Z,23.40
2019-05-23T15:58:22.303Z,23.50
2019-05-23T16:01:07.524Z,23.50
2019-05-23T16:03:51.088Z,23.50
2019-05-23T16:06:20.787Z,23.40
2019-05-23T16:08:48.183Z,23.60
2019-05-23T16:11:17.623Z,23.70
2019-05-23T16:13:44.920Z,23.80
2019-05-23T16:16:12.127Z,23.90
2019-05-23T16:18:39.050Z,23.90
2019-05-23T16:21:06.232Z,23.90
2019-05-23T16:23:33.175Z,23.70
2019-05-23T16:26:00.293Z,23.60
2019-05-23T16:28:27.286Z,23.30
2019-05-23T16:30:54.184Z,23.20
2019-05-23T16:33:21.222Z,23.00
2019-05-23T16:35:48.068Z,23.00
2019-05-23T16:38:14.876Z,22.90
2019-05-23T16:40:41.756Z,22.70
2019-05-23T16:43:09.464Z,22.60
2019-05-23T16:45:36.594Z,22.40
2019-05-23T16:48:03.529Z,22.50
2019-05-23T16:50:30.850Z,22.40
2019-05-23T16:52:57.951Z,22.20
2019-05-23T16:55:33.307Z,22.20
2019-05-23T16:58:05.468Z,22.00
2019-05-23T17:00:50.653Z,21.70
2019-05-23T17:03:27.199Z,21.70
2019-05-23T17:06:09.312Z,21.70
2019-05-23T17:09:02.900Z,21.80
2019-05-23T17:11:36.494Z,21.70
2019-05-23T17:14:09.485Z,21.60
2019-05-23T17:16:46.149Z,21.50
2019-05-23T17:19:31.595Z,21.40
2019-05-23T17:22:04.477Z,21.30
2019-05-23T17:24:59.940Z,21.20
2019-05-23T17:27:39.789Z,21.20
2019-05-23T17:30:24.099Z,21.10
2019-05-23T17:32:51.584Z,21.10
2019-05-23T17:35:18.671Z,21.00
2019-05-23T17:37:45.678Z,20.70
2019-05-23T17:40:24.276Z,20.70
2019-05-23T17:42:41.537Z,20.60
2019-05-23T17:45:13.913Z,20.60
2019-05-23T17:47:39.187Z,20.50
2019-05-23T17:50:06.269Z,20.50
2019-05-23T17:52:33.529Z,20.60
2019-05-23T17:55:00.434Z,20.40
2019-05-23T17:57:27.847Z,20.40
2019-05-23T17:59:55.176Z,20.40
2019-05-23T18:02:22.200Z,20.40
2019-05-23T18:04:49.026Z,20.40
2019-05-23T18:07:16.340Z,20.30
2019-05-23T18:09:43.251Z,20.20
2019-05-23T18:12:10.887Z,20.10
2019-05-23T18:14:37.779Z,20.10
2019-05-23T18:17:05.775Z,20.00
2019-05-23T18:19:33.508Z,19.90
2019-05-23T18:22:00.300Z,19.80
2019-05-23T18:24:27.693Z,19.60
2019-05-23T18:26:54.524Z,19.50
2019-05-23T18:29:21.930Z,19.40
2019-05-23T18:31:50.473Z,19.30
2019-05-23T18:34:18.143Z,19.20
2019-05-23T18:36:45.714Z,19.10
2019-05-23T18:39:15.940Z,18.80
2019-05-23T18:41:43.385Z,18.70
2019-05-23T18:44:10.485Z,18.60
2019-05-23T18:46:42.598Z,18.50
2019-05-23T18:49:10.024Z,18.30
2019-05-23T18:51:36.853Z,18.30
2019-05-23T18:54:04.164Z,18.20
2019-05-23T18:56:30.967Z,18.00
2019-05-23T18:58:58.998Z,18.00
2019-05-23T19:01:26.037Z,17.80
2019-05-23T19:03:53.804Z,17.60
2019-05-23T19:06:20.967Z,17.40
2019-05-23T19:08:49.637Z,17.30
2019-05-23T19:11:21.204Z,17.20
2019-05-23T19:13:45.523Z,17.00
2019-05-23T19:16:13.443Z,16.80
2019-05-23T19:18:41.101Z,16.50
2019-05-23T19:21:09.936Z,16.50
2019-05-23T19:23:38.940Z,16.40
2019-05-23T19:26:06.875Z,16.40
2019-05-23T19:28:34.461Z,16.30
2019-05-23T19:31:01.912Z,16.10
2019-05-23T19:33:29.320Z,16.10
2019-05-23T19:35:56.757Z,16.10
2019-05-23T19:38:24.053Z,16.00
2019-05-23T19:40:50.960Z,16.00
2019-05-23T19:43:18.786Z,15.80
2019-05-23T19:45:45.906Z,15.70
2019-05-23T19:48:13.578Z,15.60
2019-05-23T19:50:41.223Z,15.50
2019-05-23T19:53:08.157Z,15.50
2019-05-23T19:55:35.842Z,15.50
2019-05-23T19:58:03.584Z,15.40
2019-05-23T20:00:33.154Z,15.20
2019-05-23T20:03:03.751Z,15.20
2019-05-23T20:05:32.015Z,15.10
2019-05-23T20:07:59.108Z,14.90
2019-05-23T20:10:26.419Z,14.80
2019-05-23T20:12:53.455Z,14.70
2019-05-23T20:15:20.788Z,14.60
2019-05-23T20:17:51.443Z,14.60
2019-05-23T20:20:16.645Z,14.60
2019-05-23T20:22:43.615Z,14.60
2019-05-23T20:25:11.260Z,14.50
2019-05-23T20:27:38.312Z,14.50
2019-05-23T20:30:07.018Z,14.50
2019-05-23T20:32:34.005Z,14.50
2019-05-23T20:35:00.768Z,14.40
2019-05-23T20:37:30.107Z,14.30
2019-05-23T20:39:56.935Z,14.40
2019-05-23T20:42:23.623Z,14.30
2019-05-23T20:44:50.503Z,14.20
2019-05-23T20:47:17.704Z,14.10
2019-05-23T20:49:44.548Z,14.00
2019-05-23T20:52:11.272Z,14.00
2019-05-23T20:54:37.967Z,13.90
2019-05-23T20:57:05.038Z,13.90
2019-05-23T20:59:31.858Z,13.90
2019-05-23T21:01:59.056Z,13.80
2019-05-23T21:04:25.983Z,13.80
2019-05-23T21:06:52.772Z,13.70
2019-05-23T21:09:19.463Z,13.70
2019-05-23T21:11:46.403Z,13.70
2019-05-23T21:14:13.230Z,13.70
2019-05-23T21:16:40.208Z,13.70
2019-05-23T21:19:07.032Z,13.60
2019-05-23T21:21:34.405Z,13.50
2019-05-23T21:24:01.444Z,13.40
2019-05-23T21:26:28.402Z,13.40
2019-05-23T21:28:55.378Z,13.40
2019-05-23T21:31:22.609Z,13.50
2019-05-23T21:33:49.516Z,13.50
2019-05-23T21:36:16.579Z,13.50
2019-05-23T21:38:43.728Z,13.50
2019-05-23T21:41:10.461Z,13.40
2019-05-23T21:43:37.158Z,13.30
2019-05-23T21:46:04.402Z,13.30
2019-05-23T21:48:31.476Z,13.20
2019-05-23T21:50:58.564Z,13.10
2019-05-23T21:53:25.563Z,13.10
2019-05-23T21:55:52.399Z,13.10
2019-05-23T21:58:19.454Z,13.10
2019-05-23T22:01:25.433Z,13.10
2019-05-23T22:04:11.027Z,13.10
2019-05-23T22:06:39.715Z,13.00
2019-05-23T22:09:08.756Z,13.00
2019-05-23T22:11:35.624Z,12.90
2019-05-23T22:14:02.827Z,12.80
2019-05-23T22:16:29.656Z,12.90
2019-05-23T22:18:56.440Z,12.80
2019-05-23T22:21:23.581Z,12.80
2019-05-23T22:23:50.496Z,12.80
2019-05-23T22:26:17.208Z,12.80
2019-05-23T22:28:44.212Z,12.70
2019-05-23T22:31:12.317Z,12.70
2019-05-23T22:33:42.388Z,12.70
2019-05-23T22:36:09.644Z,12.70
2019-05-23T22:38:36.360Z,12.70
2019-05-23T22:41:03.247Z,12.60
2019-05-23T22:43:30.104Z,12.60
2019-05-23T22:45:56.889Z,12.60
2019-05-23T22:48:23.607Z,12.60
2019-05-23T22:50:50.331Z,12.50
2019-05-23T22:53:17.325Z,12.50
2019-05-23T22:55:44.374Z,12.50
2019-05-23T22:58:11.548Z,12.50
2019-05-23T23:00:40.360Z,12.50
2019-05-23T23:03:07.102Z,12.40
2019-05-23T23:05:33.983Z,12.30
2019-05-23T23:08:00.660Z,12.30
2019-05-23T23:10:27.499Z,12.30
2019-05-23T23:12:54.229Z,12.20
2019-05-23T23:15:21.320Z,12.20
2019-05-23T23:17:48.144Z,12.20
2019-05-23T23:20:15.169Z,12.20
2019-05-23T23:22:42.540Z,12.20
2019-05-23T23:25:09.482Z,12.20
2019-05-23T23:27:36.436Z,12.10
2019-05-23T23:30:04.202Z,12.10
2019-05-23T23:32:31.150Z,12.00
2019-05-23T23:34:58.089Z,12.00
2019-05-23T23:37:25.202Z,12.10
2019-05-23T23:39:51.910Z,12.10
2019-05-23T23:42:18.740Z,12.00
2019-05-23T23:44:45.468Z,12.10
2019-05-23T23:47:30.524Z,12.10
2019-05-23T23:50:15.659Z,12.20
2019-05-23T23:53:01.056Z,12.20
2019-05-23T23:55:46.331Z,12.30
2019-05-23T23:58:12.751Z,12.40
